sensor_id;sensor_type;location;lat;lon;timestamp;P1;durP1;ratioP1;P2;durP2;ratioP2
27163;SDS011;14685;50.618;7.024;2023-07-16T00:01:02;4.10;;;1.60;;
27163;SDS011;14685;50.618;7.024;2023-07-16T00:03:29;3.78;;;1.67;;
27163;SDS011;14685;50.618;7.024;2023-07-16T00:05:57;3.97;;;1.50;;
27163;SDS011;14685;50.618;7.024;2023-07-16T00:08:26;2.72;;;1.50;;
27163;SDS011;14685;50.618;7.024;2023-07-16T00:10:53;4.82;;;1.77;;
27163;SDS011;14685;50.618;7.024;2023-07-16T00:13:22;2.50;;;1.65;;
27163;SDS011;14685;50.618;7.024;2023-07-16T00:15:49;2.22;;;1.40;;
27163;SDS011;14685;50.618;7.024;2023-07-16T00:18:16;2.20;;;1.40;;
27163;SDS011;14685;50.618;7.024;2023-07-16T00:20:44;5.38;;;1.40;;
27163;SDS011;14685;50.618;7.024;2023-07-16T00:23:12;5.38;;;1.90;;
27163;SDS011;14685;50.618;7.024;2023-07-16T00:25:42;2.13;;;1.25;;
27163;SDS011;14685;50.618;7.024;2023-07-16T00:28:09;2.17;;;1.30;;
27163;SDS011;14685;50.618;7.024;2023-07-16T00:30:41;3.17;;;1.60;;
27163;SDS011;14685;50.618;7.024;2023-07-16T00:33:09;2.47;;;1.30;;
27163;SDS011;14685;50.618;7.024;2023-07-16T00:35:42;3.55;;;1.50;;
27163;SDS011;14685;50.618;7.024;2023-07-16T00:38:20;1.83;;;1.10;;
27163;SDS011;14685;50.618;7.024;2023-07-16T00:40:53;2.03;;;1.40;;
27163;SDS011;14685;50.618;7.024;2023-07-16T00:43:23;3.10;;;1.65;;
27163;SDS011;14685;50.618;7.024;2023-07-16T00:45:50;4.88;;;1.25;;
27163;SDS011;14685;50.618;7.024;2023-07-16T00:48:17;2.83;;;1.60;;
27163;SDS011;14685;50.618;7.024;2023-07-16T00:50:52;2.28;;;1.42;;
27163;SDS011;14685;50.618;7.024;2023-07-16T00:53:20;3.17;;;1.60;;
27163;SDS011;14685;50.618;7.024;2023-07-16T00:55:48;4.28;;;1.70;;
27163;SDS011;14685;50.618;7.024;2023-07-16T00:58:19;2.33;;;1.13;;
27163;SDS011;14685;50.618;7.024;2023-07-16T01:00:46;4.22;;;1.30;;
27163;SDS011;14685;50.618;7.024;2023-07-16T01:03:14;2.70;;;1.40;;
27163;SDS011;14685;50.618;7.024;2023-07-16T01:06:01;3.60;;;1.73;;
27163;SDS011;14685;50.618;7.024;2023-07-16T01:08:42;3.95;;;1.52;;
27163;SDS011;14685;50.618;7.024;2023-07-16T01:11:34;5.97;;;1.95;;
27163;SDS011;14685;50.618;7.024;2023-07-16T01:14:05;3.92;;;1.80;;
27163;SDS011;14685;50.618;7.024;2023-07-16T01:16:40;2.83;;;1.30;;
27163;SDS011;14685;50.618;7.024;2023-07-16T01:19:14;4.03;;;1.60;;
27163;SDS011;14685;50.618;7.024;2023-07-16T01:24:37;3.65;;;1.70;;
27163;SDS011;14685;50.618;7.024;2023-07-16T01:27:59;3.25;;;1.40;;
27163;SDS011;14685;50.618;7.024;2023-07-16T01:30:46;4.22;;;1.67;;
27163;SDS011;14685;50.618;7.024;2023-07-16T01:33:14;5.68;;;1.40;;
27163;SDS011;14685;50.618;7.024;2023-07-16T01:35:43;3.50;;;1.20;;
27163;SDS011;14685;50.618;7.024;2023-07-16T01:38:13;5.07;;;1.60;;
27163;SDS011;14685;50.618;7.024;2023-07-16T01:40:43;4.47;;;1.50;;
27163;SDS011;14685;50.618;7.024;2023-07-16T01:43:10;2.80;;;1.38;;
27163;SDS011;14685;50.618;7.024;2023-07-16T01:45:38;5.60;;;1.65;;
27163;SDS011;14685;50.618;7.024;2023-07-16T01:50:39;4.22;;;1.52;;
27163;SDS011;14685;50.618;7.024;2023-07-16T01:53:06;4.65;;;1.60;;
27163;SDS011;14685;50.618;7.024;2023-07-16T01:55:33;5.25;;;1.67;;
27163;SDS011;14685;50.618;7.024;2023-07-16T01:58:00;3.47;;;1.30;;
27163;SDS011;14685;50.618;7.024;2023-07-16T02:00:27;5.13;;;1.67;;
27163;SDS011;14685;50.618;7.024;2023-07-16T02:02:54;4.22;;;1.58;;
27163;SDS011;14685;50.618;7.024;2023-07-16T02:05:21;4.97;;;1.48;;
27163;SDS011;14685;50.618;7.024;2023-07-16T02:07:48;3.30;;;1.50;;
27163;SDS011;14685;50.618;7.024;2023-07-16T02:10:15;5.72;;;1.55;;
27163;SDS011;14685;50.618;7.024;2023-07-16T02:12:41;5.15;;;1.42;;
27163;SDS011;14685;50.618;7.024;2023-07-16T02:15:08;4.25;;;1.50;;
27163;SDS011;14685;50.618;7.024;2023-07-16T02:17:36;3.97;;;2.10;;
27163;SDS011;14685;50.618;7.024;2023-07-16T02:20:03;2.75;;;1.65;;
27163;SDS011;14685;50.618;7.024;2023-07-16T02:22:34;3.05;;;1.40;;
27163;SDS011;14685;50.618;7.024;2023-07-16T02:25:02;3.70;;;1.50;;
27163;SDS011;14685;50.618;7.024;2023-07-16T02:27:29;3.15;;;1.40;;
27163;SDS011;14685;50.618;7.024;2023-07-16T02:29:57;5.93;;;1.70;;
27163;SDS011;14685;50.618;7.024;2023-07-16T02:32:24;5.68;;;1.65;;
27163;SDS011;14685;50.618;7.024;2023-07-16T02:34:51;4.68;;;1.63;;
27163;SDS011;14685;50.618;7.024;2023-07-16T02:37:18;9.07;;;1.80;;
27163;SDS011;14685;50.618;7.024;2023-07-16T02:39:45;4.20;;;1.60;;
27163;SDS011;14685;50.618;7.024;2023-07-16T02:42:15;4.25;;;1.98;;
27163;SDS011;14685;50.618;7.024;2023-07-16T02:44:42;3.95;;;1.45;;
27163;SDS011;14685;50.618;7.024;2023-07-16T02:47:11;5.07;;;1.65;;
27163;SDS011;14685;50.618;7.024;2023-07-16T02:49:39;3.80;;;1.73;;
27163;SDS011;14685;50.618;7.024;2023-07-16T02:52:07;6.68;;;1.77;;
27163;SDS011;14685;50.618;7.024;2023-07-16T02:54:35;3.55;;;2.00;;
27163;SDS011;14685;50.618;7.024;2023-07-16T02:57:03;3.00;;;1.40;;
27163;SDS011;14685;50.618;7.024;2023-07-16T02:59:31;3.33;;;1.58;;
27163;SDS011;14685;50.618;7.024;2023-07-16T03:02:00;4.05;;;1.60;;
27163;SDS011;14685;50.618;7.024;2023-07-16T03:04:28;10.98;;;2.15;;
27163;SDS011;14685;50.618;7.024;2023-07-16T03:06:56;5.55;;;1.75;;
27163;SDS011;14685;50.618;7.024;2023-07-16T03:09:27;4.05;;;1.88;;
27163;SDS011;14685;50.618;7.024;2023-07-16T03:11:54;8.70;;;1.77;;
27163;SDS011;14685;50.618;7.024;2023-07-16T03:14:21;3.72;;;1.80;;
27163;SDS011;14685;50.618;7.024;2023-07-16T03:16:51;2.55;;;1.70;;
27163;SDS011;14685;50.618;7.024;2023-07-16T03:19:22;3.78;;;1.95;;
27163;SDS011;14685;50.618;7.024;2023-07-16T03:21:50;5.28;;;1.70;;
27163;SDS011;14685;50.618;7.024;2023-07-16T03:24:18;5.22;;;1.95;;
27163;SDS011;14685;50.618;7.024;2023-07-16T03:26:45;4.97;;;1.90;;
27163;SDS011;14685;50.618;7.024;2023-07-16T03:29:12;8.00;;;2.22;;
27163;SDS011;14685;50.618;7.024;2023-07-16T03:31:39;9.65;;;2.85;;
27163;SDS011;14685;50.618;7.024;2023-07-16T03:34:06;5.43;;;2.38;;
27163;SDS011;14685;50.618;7.024;2023-07-16T03:36:33;7.28;;;2.08;;
27163;SDS011;14685;50.618;7.024;2023-07-16T03:39:01;11.63;;;1.98;;
27163;SDS011;14685;50.618;7.024;2023-07-16T03:41:29;3.78;;;1.80;;
27163;SDS011;14685;50.618;7.024;2023-07-16T03:43:57;5.60;;;2.00;;
27163;SDS011;14685;50.618;7.024;2023-07-16T03:46:24;5.70;;;2.08;;
27163;SDS011;14685;50.618;7.024;2023-07-16T03:48:52;4.70;;;1.83;;
27163;SDS011;14685;50.618;7.024;2023-07-16T03:51:19;4.95;;;1.67;;
27163;SDS011;14685;50.618;7.024;2023-07-16T03:53:46;8.25;;;2.25;;
27163;SDS011;14685;50.618;7.024;2023-07-16T03:56:14;7.43;;;2.08;;
27163;SDS011;14685;50.618;7.024;2023-07-16T03:58:42;6.35;;;1.67;;
27163;SDS011;14685;50.618;7.024;2023-07-16T04:01:09;4.30;;;1.48;;
27163;SDS011;14685;50.618;7.024;2023-07-16T04:03:37;3.38;;;1.55;;
27163;SDS011;14685;50.618;7.024;2023-07-16T04:06:05;8.10;;;2.92;;
27163;SDS011;14685;50.618;7.024;2023-07-16T04:08:32;9.63;;;2.40;;
27163;SDS011;14685;50.618;7.024;2023-07-16T04:10:59;4.55;;;2.10;;
27163;SDS011;14685;50.618;7.024;2023-07-16T04:13:27;6.30;;;1.83;;
27163;SDS011;14685;50.618;7.024;2023-07-16T04:15:54;5.00;;;2.20;;
27163;SDS011;14685;50.618;7.024;2023-07-16T04:18:22;3.35;;;1.65;;
27163;SDS011;14685;50.618;7.024;2023-07-16T04:20:49;3.85;;;1.40;;
27163;SDS011;14685;50.618;7.024;2023-07-16T04:23:16;6.22;;;2.05;;
27163;SDS011;14685;50.618;7.024;2023-07-16T04:25:43;4.20;;;1.80;;
27163;SDS011;14685;50.618;7.024;2023-07-16T04:28:11;5.25;;;2.40;;
27163;SDS011;14685;50.618;7.024;2023-07-16T04:30:39;5.70;;;2.17;;
27163;SDS011;14685;50.618;7.024;2023-07-16T04:33:07;3.95;;;1.65;;
27163;SDS011;14685;50.618;7.024;2023-07-16T04:35:34;8.93;;;2.10;;
27163;SDS011;14685;50.618;7.024;2023-07-16T04:38:01;4.60;;;2.28;;
27163;SDS011;14685;50.618;7.024;2023-07-16T04:40:30;5.32;;;2.05;;
27163;SDS011;14685;50.618;7.024;2023-07-16T04:43:00;3.90;;;2.05;;
27163;SDS011;14685;50.618;7.024;2023-07-16T04:45:29;6.70;;;2.20;;
27163;SDS011;14685;50.618;7.024;2023-07-16T04:48:01;6.55;;;2.22;;
27163;SDS011;14685;50.618;7.024;2023-07-16T04:50:29;8.98;;;2.63;;
27163;SDS011;14685;50.618;7.024;2023-07-16T04:52:56;4.45;;;1.92;;
27163;SDS011;14685;50.618;7.024;2023-07-16T04:55:24;7.68;;;2.28;;
27163;SDS011;14685;50.618;7.024;2023-07-16T04:57:51;5.22;;;2.35;;
27163;SDS011;14685;50.618;7.024;2023-07-16T05:00:20;7.32;;;2.10;;
27163;SDS011;14685;50.618;7.024;2023-07-16T05:02:47;7.35;;;2.83;;
27163;SDS011;14685;50.618;7.024;2023-07-16T05:05:14;6.47;;;2.38;;
27163;SDS011;14685;50.618;7.024;2023-07-16T05:07:41;9.05;;;2.63;;
27163;SDS011;14685;50.618;7.024;2023-07-16T05:10:08;8.43;;;2.42;;
27163;SDS011;14685;50.618;7.024;2023-07-16T05:12:35;7.20;;;2.60;;
27163;SDS011;14685;50.618;7.024;2023-07-16T05:15:02;9.10;;;2.47;;
27163;SDS011;14685;50.618;7.024;2023-07-16T05:17:30;5.70;;;2.63;;
27163;SDS011;14685;50.618;7.024;2023-07-16T05:19:57;9.15;;;2.95;;
27163;SDS011;14685;50.618;7.024;2023-07-16T05:22:24;5.38;;;2.80;;
27163;SDS011;14685;50.618;7.024;2023-07-16T05:24:51;7.93;;;3.08;;
27163;SDS011;14685;50.618;7.024;2023-07-16T05:27:19;11.80;;;3.15;;
27163;SDS011;14685;50.618;7.024;2023-07-16T05:29:47;7.72;;;2.58;;
27163;SDS011;14685;50.618;7.024;2023-07-16T05:32:14;10.48;;;3.38;;
27163;SDS011;14685;50.618;7.024;2023-07-16T05:34:42;4.57;;;2.38;;
27163;SDS011;14685;50.618;7.024;2023-07-16T05:37:08;8.45;;;2.80;;
27163;SDS011;14685;50.618;7.024;2023-07-16T05:39:35;7.75;;;3.08;;
27163;SDS011;14685;50.618;7.024;2023-07-16T05:42:04;9.93;;;3.45;;
27163;SDS011;14685;50.618;7.024;2023-07-16T05:44:31;10.80;;;3.55;;
27163;SDS011;14685;50.618;7.024;2023-07-16T05:46:58;7.03;;;3.20;;
27163;SDS011;14685;50.618;7.024;2023-07-16T05:49:25;7.40;;;3.33;;
27163;SDS011;14685;50.618;7.024;2023-07-16T05:51:53;7.25;;;3.50;;
27163;SDS011;14685;50.618;7.024;2023-07-16T05:54:22;8.18;;;3.35;;
27163;SDS011;14685;50.618;7.024;2023-07-16T05:56:49;8.80;;;3.70;;
27163;SDS011;14685;50.618;7.024;2023-07-16T05:59:16;9.32;;;3.38;;
27163;SDS011;14685;50.618;7.024;2023-07-16T06:01:43;9.57;;;3.20;;
27163;SDS011;14685;50.618;7.024;2023-07-16T06:04:10;11.18;;;3.85;;
27163;SDS011;14685;50.618;7.024;2023-07-16T06:06:37;7.25;;;3.40;;
27163;SDS011;14685;50.618;7.024;2023-07-16T06:09:07;7.72;;;3.72;;
27163;SDS011;14685;50.618;7.024;2023-07-16T06:11:34;13.07;;;3.67;;
27163;SDS011;14685;50.618;7.024;2023-07-16T06:14:01;9.77;;;3.45;;
27163;SDS011;14685;50.618;7.024;2023-07-16T06:16:28;9.50;;;3.80;;
27163;SDS011;14685;50.618;7.024;2023-07-16T06:19:03;8.18;;;3.55;;
27163;SDS011;14685;50.618;7.024;2023-07-16T06:21:34;9.90;;;4.28;;
27163;SDS011;14685;50.618;7.024;2023-07-16T06:24:01;12.68;;;4.18;;
27163;SDS011;14685;50.618;7.024;2023-07-16T06:26:31;8.02;;;3.40;;
27163;SDS011;14685;50.618;7.024;2023-07-16T06:29:01;8.53;;;3.70;;
27163;SDS011;14685;50.618;7.024;2023-07-16T06:31:30;7.85;;;3.85;;
27163;SDS011;14685;50.618;7.024;2023-07-16T06:33:57;7.70;;;3.55;;
27163;SDS011;14685;50.618;7.024;2023-07-16T06:36:24;9.10;;;3.88;;
27163;SDS011;14685;50.618;7.024;2023-07-16T06:38:52;8.43;;;3.80;;
27163;SDS011;14685;50.618;7.024;2023-07-16T06:41:19;9.90;;;3.97;;
27163;SDS011;14685;50.618;7.024;2023-07-16T06:43:59;10.88;;;3.92;;
27163;SDS011;14685;50.618;7.024;2023-07-16T06:46:26;7.28;;;4.15;;
27163;SDS011;14685;50.618;7.024;2023-07-16T06:48:53;10.35;;;3.90;;
27163;SDS011;14685;50.618;7.024;2023-07-16T06:51:20;6.63;;;3.38;;
27163;SDS011;14685;50.618;7.024;2023-07-16T06:53:47;7.85;;;4.22;;
27163;SDS011;14685;50.618;7.024;2023-07-16T06:56:14;6.03;;;3.75;;
27163;SDS011;14685;50.618;7.024;2023-07-16T06:58:42;6.53;;;4.00;;
27163;SDS011;14685;50.618;7.024;2023-07-16T07:01:09;10.10;;;4.63;;
27163;SDS011;14685;50.618;7.024;2023-07-16T07:03:36;8.23;;;4.68;;
27163;SDS011;14685;50.618;7.024;2023-07-16T07:06:03;11.75;;;5.00;;
27163;SDS011;14685;50.618;7.024;2023-07-16T07:08:30;7.95;;;4.90;;
27163;SDS011;14685;50.618;7.024;2023-07-16T07:10:58;10.48;;;4.75;;
27163;SDS011;14685;50.618;7.024;2023-07-16T07:13:25;10.82;;;4.50;;
27163;SDS011;14685;50.618;7.024;2023-07-16T07:15:56;9.63;;;5.43;;
27163;SDS011;14685;50.618;7.024;2023-07-16T07:18:23;8.13;;;4.78;;
27163;SDS011;14685;50.618;7.024;2023-07-16T07:20:50;9.77;;;5.03;;
27163;SDS011;14685;50.618;7.024;2023-07-16T07:23:17;8.82;;;5.22;;
27163;SDS011;14685;50.618;7.024;2023-07-16T07:25:48;6.18;;;4.25;;
27163;SDS011;14685;50.618;7.024;2023-07-16T07:28:17;7.35;;;4.47;;
27163;SDS011;14685;50.618;7.024;2023-07-16T07:30:45;7.00;;;4.40;;
27163;SDS011;14685;50.618;7.024;2023-07-16T07:33:12;8.63;;;4.93;;
27163;SDS011;14685;50.618;7.024;2023-07-16T07:35:41;8.50;;;5.07;;
27163;SDS011;14685;50.618;7.024;2023-07-16T07:38:11;10.15;;;5.10;;
27163;SDS011;14685;50.618;7.024;2023-07-16T07:40:39;8.73;;;4.68;;
27163;SDS011;14685;50.618;7.024;2023-07-16T07:43:09;9.60;;;5.18;;
27163;SDS011;14685;50.618;7.024;2023-07-16T07:45:36;11.05;;;5.15;;
27163;SDS011;14685;50.618;7.024;2023-07-16T07:48:03;8.82;;;5.03;;
27163;SDS011;14685;50.618;7.024;2023-07-16T07:50:31;7.65;;;4.30;;
27163;SDS011;14685;50.618;7.024;2023-07-16T07:52:58;6.95;;;4.63;;
27163;SDS011;14685;50.618;7.024;2023-07-16T07:55:25;8.15;;;4.93;;
27163;SDS011;14685;50.618;7.024;2023-07-16T07:57:53;8.63;;;4.43;;
27163;SDS011;14685;50.618;7.024;2023-07-16T08:00:21;9.35;;;4.70;;
27163;SDS011;14685;50.618;7.024;2023-07-16T08:02:48;6.50;;;4.65;;
27163;SDS011;14685;50.618;7.024;2023-07-16T08:05:16;8.25;;;5.07;;
27163;SDS011;14685;50.618;7.024;2023-07-16T08:07:44;7.47;;;4.72;;
27163;SDS011;14685;50.618;7.024;2023-07-16T08:10:11;7.78;;;4.35;;
27163;SDS011;14685;50.618;7.024;2023-07-16T08:12:38;8.40;;;4.88;;
27163;SDS011;14685;50.618;7.024;2023-07-16T08:15:05;10.00;;;5.07;;
27163;SDS011;14685;50.618;7.024;2023-07-16T08:17:34;6.90;;;4.70;;
27163;SDS011;14685;50.618;7.024;2023-07-16T08:20:02;8.82;;;4.60;;
27163;SDS011;14685;50.618;7.024;2023-07-16T08:22:30;8.98;;;4.65;;
27163;SDS011;14685;50.618;7.024;2023-07-16T08:24:57;6.70;;;5.13;;
27163;SDS011;14685;50.618;7.024;2023-07-16T08:27:24;7.75;;;4.68;;
27163;SDS011;14685;50.618;7.024;2023-07-16T08:29:52;5.85;;;4.57;;
27163;SDS011;14685;50.618;7.024;2023-07-16T08:32:19;8.27;;;4.68;;
27163;SDS011;14685;50.618;7.024;2023-07-16T08:34:46;6.25;;;5.13;;
27163;SDS011;14685;50.618;7.024;2023-07-16T08:37:14;8.85;;;4.30;;
27163;SDS011;14685;50.618;7.024;2023-07-16T08:39:41;6.10;;;4.35;;
27163;SDS011;14685;50.618;7.024;2023-07-16T08:42:09;8.15;;;4.28;;
27163;SDS011;14685;50.618;7.024;2023-07-16T08:44:38;6.72;;;3.88;;
27163;SDS011;14685;50.618;7.024;2023-07-16T08:47:05;5.85;;;3.53;;
27163;SDS011;14685;50.618;7.024;2023-07-16T08:49:35;5.05;;;3.10;;
27163;SDS011;14685;50.618;7.024;2023-07-16T08:52:03;5.55;;;3.78;;
27163;SDS011;14685;50.618;7.024;2023-07-16T08:54:31;4.25;;;3.47;;
27163;SDS011;14685;50.618;7.024;2023-07-16T08:56:59;5.72;;;3.63;;
27163;SDS011;14685;50.618;7.024;2023-07-16T08:59:26;6.30;;;3.65;;
27163;SDS011;14685;50.618;7.024;2023-07-16T09:01:53;7.18;;;3.75;;
27163;SDS011;14685;50.618;7.024;2023-07-16T09:04:21;8.30;;;3.95;;
27163;SDS011;14685;50.618;7.024;2023-07-16T09:06:48;7.60;;;4.30;;
27163;SDS011;14685;50.618;7.024;2023-07-16T09:09:22;9.25;;;4.28;;
27163;SDS011;14685;50.618;7.024;2023-07-16T09:11:49;9.00;;;3.95;;
27163;SDS011;14685;50.618;7.024;2023-07-16T09:14:20;7.93;;;3.92;;
27163;SDS011;14685;50.618;7.024;2023-07-16T09:16:51;5.88;;;3.53;;
27163;SDS011;14685;50.618;7.024;2023-07-16T09:19:19;9.13;;;3.90;;
27163;SDS011;14685;50.618;7.024;2023-07-16T09:21:49;8.18;;;4.75;;
27163;SDS011;14685;50.618;7.024;2023-07-16T09:24:18;4.57;;;3.58;;
27163;SDS011;14685;50.618;7.024;2023-07-16T09:26:50;8.35;;;4.00;;
27163;SDS011;14685;50.618;7.024;2023-07-16T09:29:19;15.60;;;9.32;;
27163;SDS011;14685;50.618;7.024;2023-07-16T09:31:53;6.53;;;4.10;;
27163;SDS011;14685;50.618;7.024;2023-07-16T09:34:26;6.18;;;3.75;;
27163;SDS011;14685;50.618;7.024;2023-07-16T09:36:55;8.30;;;4.00;;
27163;SDS011;14685;50.618;7.024;2023-07-16T09:39:23;7.22;;;4.47;;
27163;SDS011;14685;50.618;7.024;2023-07-16T09:41:51;7.65;;;3.60;;
27163;SDS011;14685;50.618;7.024;2023-07-16T09:44:19;7.18;;;3.85;;
27163;SDS011;14685;50.618;7.024;2023-07-16T09:46:46;4.95;;;3.30;;
27163;SDS011;14685;50.618;7.024;2023-07-16T09:49:14;5.70;;;3.40;;
27163;SDS011;14685;50.618;7.024;2023-07-16T09:51:42;6.00;;;3.30;;
27163;SDS011;14685;50.618;7.024;2023-07-16T09:54:12;8.43;;;3.80;;
27163;SDS011;14685;50.618;7.024;2023-07-16T09:56:50;7.45;;;3.97;;
27163;SDS011;14685;50.618;7.024;2023-07-16T09:59:22;4.75;;;3.50;;
27163;SDS011;14685;50.618;7.024;2023-07-16T10:01:51;8.02;;;3.42;;
27163;SDS011;14685;50.618;7.024;2023-07-16T10:04:19;5.20;;;3.50;;
27163;SDS011;14685;50.618;7.024;2023-07-16T10:06:55;5.13;;;3.85;;
27163;SDS011;14685;50.618;7.024;2023-07-16T10:14:43;7.40;;;4.13;;
27163;SDS011;14685;50.618;7.024;2023-07-16T10:17:16;5.72;;;3.13;;
27163;SDS011;14685;50.618;7.024;2023-07-16T10:22:45;7.25;;;3.42;;
27163;SDS011;14685;50.618;7.024;2023-07-16T10:27:46;10.05;;;4.25;;
27163;SDS011;14685;50.618;7.024;2023-07-16T10:30:15;6.85;;;3.20;;
27163;SDS011;14685;50.618;7.024;2023-07-16T10:32:42;6.68;;;3.38;;
27163;SDS011;14685;50.618;7.024;2023-07-16T10:35:10;8.65;;;3.47;;
27163;SDS011;14685;50.618;7.024;2023-07-16T10:37:39;7.35;;;3.53;;
27163;SDS011;14685;50.618;7.024;2023-07-16T10:40:10;8.52;;;3.75;;
27163;SDS011;14685;50.618;7.024;2023-07-16T10:42:40;8.70;;;4.50;;
27163;SDS011;14685;50.618;7.024;2023-07-16T10:45:13;7.22;;;3.88;;
27163;SDS011;14685;50.618;7.024;2023-07-16T10:47:50;5.97;;;3.65;;
27163;SDS011;14685;50.618;7.024;2023-07-16T10:50:19;5.25;;;3.47;;
27163;SDS011;14685;50.618;7.024;2023-07-16T10:52:51;5.22;;;3.63;;
27163;SDS011;14685;50.618;7.024;2023-07-16T10:55:20;7.85;;;3.72;;
27163;SDS011;14685;50.618;7.024;2023-07-16T10:57:48;5.93;;;3.40;;
27163;SDS011;14685;50.618;7.024;2023-07-16T11:00:17;4.72;;;3.40;;
27163;SDS011;14685;50.618;7.024;2023-07-16T11:02:44;5.15;;;3.42;;
27163;SDS011;14685;50.618;7.024;2023-07-16T11:05:15;5.95;;;3.72;;
27163;SDS011;14685;50.618;7.024;2023-07-16T11:07:43;7.78;;;3.88;;
27163;SDS011;14685;50.618;7.024;2023-07-16T11:10:17;7.20;;;3.95;;
27163;SDS011;14685;50.618;7.024;2023-07-16T11:12:49;5.72;;;3.40;;
27163;SDS011;14685;50.618;7.024;2023-07-16T11:17:55;5.38;;;3.42;;
27163;SDS011;14685;50.618;7.024;2023-07-16T11:20:23;7.18;;;3.83;;
27163;SDS011;14685;50.618;7.024;2023-07-16T11:22:50;7.20;;;3.75;;
27163;SDS011;14685;50.618;7.024;2023-07-16T11:25:17;8.23;;;3.20;;
27163;SDS011;14685;50.618;7.024;2023-07-16T11:27:48;6.00;;;3.90;;
27163;SDS011;14685;50.618;7.024;2023-07-16T11:30:15;4.93;;;3.22;;
27163;SDS011;14685;50.618;7.024;2023-07-16T11:32:45;6.97;;;3.75;;
27163;SDS011;14685;50.618;7.024;2023-07-16T11:35:16;6.53;;;4.13;;
27163;SDS011;14685;50.618;7.024;2023-07-16T11:37:45;6.40;;;3.55;;
27163;SDS011;14685;50.618;7.024;2023-07-16T11:40:17;8.18;;;3.63;;
27163;SDS011;14685;50.618;7.024;2023-07-16T11:42:45;7.97;;;3.88;;
27163;SDS011;14685;50.618;7.024;2023-07-16T11:45:23;5.97;;;3.92;;
27163;SDS011;14685;50.618;7.024;2023-07-16T11:47:54;6.90;;;3.15;;
27163;SDS011;14685;50.618;7.024;2023-07-16T11:50:23;5.78;;;3.67;;
27163;SDS011;14685;50.618;7.024;2023-07-16T11:52:53;10.52;;;3.90;;
27163;SDS011;14685;50.618;7.024;2023-07-16T11:55:22;4.88;;;3.08;;
27163;SDS011;14685;50.618;7.024;2023-07-16T11:57:49;5.75;;;3.47;;
27163;SDS011;14685;50.618;7.024;2023-07-16T12:00:16;6.07;;;3.70;;
27163;SDS011;14685;50.618;7.024;2023-07-16T12:02:47;4.15;;;3.42;;
27163;SDS011;14685;50.618;7.024;2023-07-16T12:05:18;6.85;;;3.58;;
27163;SDS011;14685;50.618;7.024;2023-07-16T12:07:55;6.43;;;3.58;;
27163;SDS011;14685;50.618;7.024;2023-07-16T12:10:22;3.97;;;3.55;;
27163;SDS011;14685;50.618;7.024;2023-07-16T12:12:49;6.35;;;3.72;;
27163;SDS011;14685;50.618;7.024;2023-07-16T12:15:16;8.85;;;4.05;;
27163;SDS011;14685;50.618;7.024;2023-07-16T12:17:43;5.80;;;3.88;;
27163;SDS011;14685;50.618;7.024;2023-07-16T12:20:10;5.47;;;4.00;;
27163;SDS011;14685;50.618;7.024;2023-07-16T12:22:37;5.63;;;3.55;;
27163;SDS011;14685;50.618;7.024;2023-07-16T12:25:05;8.18;;;3.70;;
27163;SDS011;14685;50.618;7.024;2023-07-16T12:27:32;6.90;;;3.50;;
27163;SDS011;14685;50.618;7.024;2023-07-16T12:29:59;4.78;;;3.53;;
27163;SDS011;14685;50.618;7.024;2023-07-16T12:32:27;5.03;;;3.40;;
27163;SDS011;14685;50.618;7.024;2023-07-16T12:34:54;6.40;;;3.58;;
27163;SDS011;14685;50.618;7.024;2023-07-16T12:37:21;7.63;;;3.45;;
27163;SDS011;14685;50.618;7.024;2023-07-16T12:39:48;5.22;;;3.42;;
27163;SDS011;14685;50.618;7.024;2023-07-16T12:42:15;5.28;;;3.10;;
27163;SDS011;14685;50.618;7.024;2023-07-16T12:44:42;5.78;;;3.30;;
27163;SDS011;14685;50.618;7.024;2023-07-16T12:47:09;8.35;;;3.72;;
27163;SDS011;14685;50.618;7.024;2023-07-16T12:49:36;7.13;;;3.90;;
27163;SDS011;14685;50.618;7.024;2023-07-16T12:52:03;4.97;;;3.10;;
27163;SDS011;14685;50.618;7.024;2023-07-16T12:54:31;4.50;;;3.00;;
27163;SDS011;14685;50.618;7.024;2023-07-16T12:56:58;5.53;;;3.08;;
27163;SDS011;14685;50.618;7.024;2023-07-16T12:59:26;6.25;;;3.10;;
27163;SDS011;14685;50.618;7.024;2023-07-16T13:01:54;6.80;;;3.15;;
27163;SDS011;14685;50.618;7.024;2023-07-16T13:04:22;5.38;;;3.40;;
27163;SDS011;14685;50.618;7.024;2023-07-16T13:06:49;9.60;;;3.83;;
27163;SDS011;14685;50.618;7.024;2023-07-16T13:09:16;5.75;;;3.28;;
27163;SDS011;14685;50.618;7.024;2023-07-16T13:11:43;6.13;;;3.33;;
27163;SDS011;14685;50.618;7.024;2023-07-16T13:14:10;5.28;;;3.55;;
27163;SDS011;14685;50.618;7.024;2023-07-16T13:16:37;6.60;;;3.28;;
27163;SDS011;14685;50.618;7.024;2023-07-16T13:19:04;6.80;;;3.42;;
27163;SDS011;14685;50.618;7.024;2023-07-16T13:21:32;5.32;;;3.13;;
27163;SDS011;14685;50.618;7.024;2023-07-16T13:24:00;6.35;;;3.03;;
27163;SDS011;14685;50.618;7.024;2023-07-16T13:26:27;3.85;;;3.50;;
27163;SDS011;14685;50.618;7.024;2023-07-16T13:28:55;7.68;;;3.33;;
27163;SDS011;14685;50.618;7.024;2023-07-16T13:31:22;10.70;;;3.60;;
27163;SDS011;14685;50.618;7.024;2023-07-16T13:33:49;5.55;;;3.30;;
27163;SDS011;14685;50.618;7.024;2023-07-16T13:36:16;8.05;;;3.53;;
27163;SDS011;14685;50.618;7.024;2023-07-16T13:38:44;6.28;;;3.60;;
27163;SDS011;14685;50.618;7.024;2023-07-16T13:41:11;5.35;;;3.50;;
27163;SDS011;14685;50.618;7.024;2023-07-16T13:43:38;5.07;;;3.60;;
27163;SDS011;14685;50.618;7.024;2023-07-16T13:46:05;5.32;;;2.90;;
27163;SDS011;14685;50.618;7.024;2023-07-16T13:48:32;5.18;;;3.13;;
27163;SDS011;14685;50.618;7.024;2023-07-16T13:51:13;5.10;;;3.03;;
27163;SDS011;14685;50.618;7.024;2023-07-16T13:53:40;4.53;;;2.97;;
27163;SDS011;14685;50.618;7.024;2023-07-16T13:56:08;4.88;;;3.55;;
27163;SDS011;14685;50.618;7.024;2023-07-16T13:58:35;5.18;;;3.05;;
27163;SDS011;14685;50.618;7.024;2023-07-16T14:01:02;5.22;;;3.17;;
27163;SDS011;14685;50.618;7.024;2023-07-16T14:03:29;5.80;;;3.28;;
27163;SDS011;14685;50.618;7.024;2023-07-16T14:05:56;6.10;;;3.13;;
27163;SDS011;14685;50.618;7.024;2023-07-16T14:08:23;7.57;;;3.47;;
27163;SDS011;14685;50.618;7.024;2023-07-16T14:10:50;6.03;;;3.20;;
27163;SDS011;14685;50.618;7.024;2023-07-16T14:13:17;5.35;;;2.70;;
27163;SDS011;14685;50.618;7.024;2023-07-16T14:15:46;9.30;;;3.40;;
27163;SDS011;14685;50.618;7.024;2023-07-16T14:18:12;5.80;;;3.20;;
27163;SDS011;14685;50.618;7.024;2023-07-16T14:20:40;5.20;;;3.20;;
27163;SDS011;14685;50.618;7.024;2023-07-16T14:23:07;5.80;;;2.50;;
27163;SDS011;14685;50.618;7.024;2023-07-16T14:25:34;6.85;;;3.28;;
27163;SDS011;14685;50.618;7.024;2023-07-16T14:28:02;6.93;;;3.13;;
27163;SDS011;14685;50.618;7.024;2023-07-16T14:30:29;5.82;;;2.88;;
27163;SDS011;14685;50.618;7.024;2023-07-16T14:32:56;4.05;;;2.85;;
27163;SDS011;14685;50.618;7.024;2023-07-16T14:35:25;4.00;;;2.85;;
27163;SDS011;14685;50.618;7.024;2023-07-16T14:38:02;5.50;;;3.13;;
27163;SDS011;14685;50.618;7.024;2023-07-16T14:40:28;4.47;;;2.95;;
27163;SDS011;14685;50.618;7.024;2023-07-16T14:42:55;6.43;;;3.10;;
27163;SDS011;14685;50.618;7.024;2023-07-16T14:45:23;4.47;;;2.63;;
27163;SDS011;14685;50.618;7.024;2023-07-16T14:47:51;4.38;;;2.72;;
27163;SDS011;14685;50.618;7.024;2023-07-16T14:50:18;6.13;;;2.92;;
27163;SDS011;14685;50.618;7.024;2023-07-16T14:52:45;5.18;;;2.58;;
27163;SDS011;14685;50.618;7.024;2023-07-16T14:55:12;3.83;;;2.35;;
27163;SDS011;14685;50.618;7.024;2023-07-16T14:57:39;6.93;;;2.75;;
27163;SDS011;14685;50.618;7.024;2023-07-16T15:00:08;6.40;;;2.92;;
27163;SDS011;14685;50.618;7.024;2023-07-16T15:02:38;3.72;;;2.80;;
27163;SDS011;14685;50.618;7.024;2023-07-16T15:05:06;5.13;;;2.80;;
27163;SDS011;14685;50.618;7.024;2023-07-16T15:07:36;3.83;;;2.60;;
27163;SDS011;14685;50.618;7.024;2023-07-16T15:10:04;5.18;;;3.20;;
27163;SDS011;14685;50.618;7.024;2023-07-16T15:12:32;8.02;;;3.40;;
27163;SDS011;14685;50.618;7.024;2023-07-16T15:15:02;4.03;;;2.70;;